»·PEaware :: SWA435 KDEN-KSLC

SWA435 :: KDEN-KSLC

FLIGHT INFORMATION

Flight Status: Arrived
Operator:
Southwest Airlines
More flights by this operator :: More flights under this callsign
Pilot: Ben F. (13029)
Aircraft: BOEING 737-300
(B733)
More flights by this aircraft type
Origin: KDEN Denver Intl
United States
Destination: KSLC Salt Lake City Intl
United States
More flights between these airports :: More routes between these airports
Route: +FOOOT4 RLG EKR LEEHY5
File this flight plan on PilotEdge
Remarks: RMK / SIMBRIEF
Altitude:
(Current/Filed)
36,000ft
Speed:
(Current/Filed)
438kts
Departed: 01-Aug-19 04:40 PM
Arrived: 01-Aug-19 05:50 PM
Distance/Time
Traveled:
339nm/1:10
Distance/Time
To Go:
Arrived

Flight Plot

Page will automatically refresh every two minutes.

Flight plan parsing failed; only flown route is shown


Map Options




Map Legend


Flown Route
Filed Route
Departure Airport
Arrival Airport
Navaid (VOR, NDB)
Fix

Horizontal Profiles

Position Reports

Time Latitude Longitude Heading Altitude Ground
Speed
01-Aug-19 16:05 39.862556 -104.676840 359 5324ft 0kts
01-Aug-19 16:06 39.862556 -104.676840 359 5324ft 0kts
01-Aug-19 16:07 39.862556 -104.676840 359 5324ft 0kts
01-Aug-19 16:08 39.862556 -104.676840 359 5324ft 0kts
01-Aug-19 16:09 39.862556 -104.676840 359 5324ft 0kts
01-Aug-19 16:10 39.862556 -104.676840 359 5324ft 0kts
01-Aug-19 16:11 39.862556 -104.676840 359 5324ft 0kts
01-Aug-19 16:12 39.862556 -104.676840 359 5324ft 0kts
01-Aug-19 16:13 39.862556 -104.676840 359 5324ft 0kts
01-Aug-19 16:14 39.862556 -104.676840 359 5324ft 0kts
01-Aug-19 16:15 39.862556 -104.676840 359 5324ft 0kts
01-Aug-19 16:16 39.862556 -104.676840 359 5324ft 0kts
01-Aug-19 16:17 39.862556 -104.676840 359 5324ft 0kts
01-Aug-19 16:18 39.862556 -104.676840 359 5324ft 0kts
01-Aug-19 16:19 39.862556 -104.676840 359 5324ft 0kts
01-Aug-19 16:20 39.862456 -104.676863 25 5324ft 2kts
01-Aug-19 16:21 39.861968 -104.676691 305 5324ft 2kts
01-Aug-19 16:22 39.861882 -104.676274 267 5324ft 0kts
01-Aug-19 16:23 39.861882 -104.676275 267 5324ft 0kts
01-Aug-19 16:24 39.861882 -104.676275 267 5324ft 0kts
01-Aug-19 16:25 39.861882 -104.676275 267 5324ft 0kts
01-Aug-19 16:26 39.861880 -104.676329 267 5324ft 0kts
01-Aug-19 16:27 39.861372 -104.678972 268 5324ft 19kts
01-Aug-19 16:28 39.862686 -104.685069 0 5324ft 16kts
01-Aug-19 16:29 39.868128 -104.685006 0 5324ft 22kts
01-Aug-19 16:30 39.875306 -104.684929 0 5324ft 28kts
01-Aug-19 16:31 39.884617 -104.684810 359 5324ft 37kts
01-Aug-19 16:32 39.896186 -104.684673 0 5324ft 20kts
01-Aug-19 16:33 39.896911 -104.685293 272 5324ft 0kts
01-Aug-19 16:34 39.896911 -104.685293 272 5324ft 0kts
01-Aug-19 16:35 39.896911 -104.685293 272 5324ft 0kts
01-Aug-19 16:36 39.896911 -104.685293 272 5324ft 0kts
01-Aug-19 16:37 39.896911 -104.685293 272 5324ft 0kts
01-Aug-19 16:38 39.896193 -104.686805 181 5324ft 8kts
01-Aug-19 16:39 39.867431 -104.687136 185 5472ft 194kts
01-Aug-19 16:40 39.815727 -104.689532 193 7850ft 172kts
01-Aug-19 16:41 39.780673 -104.728292 257 8785ft 185kts
01-Aug-19 16:42 39.798190 -104.791460 320 9679ft 239kts
01-Aug-19 16:43 39.859707 -104.851701 320 10014ft 285kts
01-Aug-19 16:44 39.917827 -104.920229 297 10055ft 285kts
01-Aug-19 16:45 39.949618 -105.015904 278 12750ft 289kts
01-Aug-19 16:46 39.961766 -105.122028 278 15230ft 300kts
01-Aug-19 16:47 39.974434 -105.231967 278 17553ft 310kts
01-Aug-19 16:48 39.984827 -105.345651 268 19655ft 321kts
01-Aug-19 16:49 39.981015 -105.464022 267 21611ft 330kts
01-Aug-19 16:50 39.977331 -105.584180 267 23335ft 339kts
01-Aug-19 16:51 39.974134 -105.697082 267 24748ft 347kts
01-Aug-19 16:52 39.971701 -105.825143 267 26299ft 354kts
01-Aug-19 16:53 39.976311 -105.954639 273 27944ft 353kts
01-Aug-19 16:54 39.983574 -106.083112 272 29189ft 353kts
01-Aug-19 16:55 39.990606 -106.211040 272 30288ft 350kts
01-Aug-19 16:56 39.997426 -106.337706 272 31538ft 346kts
01-Aug-19 16:57 40.003906 -106.463855 272 32447ft 349kts
01-Aug-19 16:58 40.009913 -106.590768 272 33347ft 350kts
01-Aug-19 16:59 40.015352 -106.703147 271 34103ft 349kts
01-Aug-19 17:00 40.021421 -106.832007 271 34615ft 357kts
01-Aug-19 17:01 40.027761 -106.966757 270 34697ft 379kts
01-Aug-19 17:02 40.034253 -107.107905 270 35021ft 393kts
01-Aug-19 17:03 40.040739 -107.252973 269 35664ft 398kts
01-Aug-19 17:04 40.047116 -107.399867 270 36239ft 401kts
01-Aug-19 17:05 40.053280 -107.546069 270 36297ft 403kts
01-Aug-19 17:06 40.059301 -107.693381 269 36272ft 402kts
01-Aug-19 17:07 40.065130 -107.840485 269 36295ft 402kts
01-Aug-19 17:08 40.070517 -107.987989 269 36294ft 402kts
01-Aug-19 17:09 40.077028 -108.135341 270 36294ft 402kts
01-Aug-19 17:10 40.083659 -108.282643 270 36294ft 402kts
01-Aug-19 17:11 40.090135 -108.430614 270 36293ft 402kts
01-Aug-19 17:12 40.096397 -108.578035 270 36281ft 402kts
01-Aug-19 17:13 40.102570 -108.723613 269 36251ft 401kts
01-Aug-19 17:14 40.108588 -108.871053 269 36233ft 402kts
01-Aug-19 17:15 40.113433 -109.018242 269 36224ft 400kts
01-Aug-19 17:16 40.118855 -109.163929 268 36220ft 395kts
01-Aug-19 17:17 40.124084 -109.308597 268 36218ft 394kts
01-Aug-19 17:18 40.129143 -109.453440 268 36222ft 395kts
01-Aug-19 17:19 40.133330 -109.558661 268 36221ft 395kts
01-Aug-19 17:20 40.137717 -109.698145 267 36208ft 394kts
01-Aug-19 17:21 40.141894 -109.842879 267 36221ft 394kts
01-Aug-19 17:22 40.145901 -109.985779 267 34607ft 386kts
01-Aug-19 17:23 40.149552 -110.123008 267 32369ft 367kts
01-Aug-19 17:24 40.148317 -110.253732 267 30038ft 353kts
01-Aug-19 17:25 40.147275 -110.380357 268 27696ft 342kts
01-Aug-19 17:26 40.146195 -110.503070 269 25880ft 329kts
01-Aug-19 17:27 40.144981 -110.624889 270 24697ft 332kts
01-Aug-19 17:28 40.143661 -110.745752 269 23560ft 328kts
01-Aug-19 17:29 40.142230 -110.865701 270 22454ft 326kts
01-Aug-19 17:30 40.140699 -110.984115 268 21275ft 320kts
01-Aug-19 17:31 40.139071 -111.100743 267 20070ft 318kts
01-Aug-19 17:32 40.137275 -111.217344 266 18859ft 315kts
01-Aug-19 17:34 40.134660 -111.332004 267 17792ft 312kts
01-Aug-19 17:35 40.132679 -111.443133 267 16810ft 309kts
01-Aug-19 17:36 40.131215 -111.525576 267 16106ft 306kts
01-Aug-19 17:37 40.160770 -111.630498 294 15190ft 314kts
01-Aug-19 17:38 40.209525 -111.723777 313 13153ft 311kts
01-Aug-19 17:39 40.269309 -111.803578 313 11611ft 301kts
01-Aug-19 17:40 40.330942 -111.872257 321 11046ft 287kts
01-Aug-19 17:41 40.388825 -111.927807 344 11040ft 243kts
01-Aug-19 17:42 40.442072 -111.934881 353 10683ft 222kts
01-Aug-19 17:43 40.501687 -111.941846 354 9990ft 212kts
01-Aug-19 17:44 40.558302 -111.948053 353 8962ft 195kts
01-Aug-19 17:45 40.613921 -111.954494 353 7751ft 211kts
01-Aug-19 17:46 40.670276 -111.960967 352 6285ft 173kts
01-Aug-19 17:47 40.713036 -111.965857 352 5487ft 161kts
01-Aug-19 17:48 40.753965 -111.970398 352 4684ft 143kts
01-Aug-19 17:49 40.788252 -111.974706 355 4234ft 45kts
01-Aug-19 17:50 40.792100 -111.976335 282 4234ft 0kts
01-Aug-19 17:51 40.789951 -111.977671 232 4234ft 16kts
01-Aug-19 17:52 40.789213 -111.978355 187 4234ft 0kts

Navigation Log

Ident Type
Flight plan parsing failed, navigation log unavailable